Banning, CA (92220)

11:54 PM PDT on September 30, 2014 (GMT -0700)
Banning, CA: I-10 1mile N of Sun Lakes | Change Station
CLOSE
Current Station
Personal Weather Station
Location: Banning, CA
Elevation: 2543 ft
Nearby Weather Stations
Active Advisory: Heat Advisory

Elev 2543 ft 33.93 °N, 116.93 °W | Updated 5 seconds ago

Clear
Clear
60.9 °F
Feels Like 60.9 °F
N
0.0
Wind Variable Wind from WSW
Gusts 0.0 mph

Today
High -- | Low -- °F
--% Chance of Precip.
Yesterday
High -- | Low -- °F
Precip. -- in
6:41 AM 6:33 PM
Waxing Crescent, 44% visible
Pressure 29.78 in
Visibility 10.0 miles
Clouds Clear
Dew Point 50 °F
Humidity 68%
Rainfall 0.00 in
Snow Depth 1 in , 1 in , 1 in
UV 0 out of 12
Pollen 5.10 out of 12
Ozone Good
PM2.5 Good
Flu Activity Not available.
METAR KRIV 010558Z AUTO 18001KT 10SM CLR 20/12 A2982 RMK AO2 SLP085 T01970116 10295 20197 50003

More Conditions Fewer Conditions

Pressure 29.78 in
Visibility 10.0 miles
Clouds Clear
Dew Point 50 °F
Humidity 68%
Rainfall 0.00 in
Snow Depth 1 in , 1 in , 1 in
UV 0 out of 12
Pollen 5.10 out of 12
Ozone Good
PM2.5 Good
Flu Activity Not available.
METAR KRIV 010558Z AUTO 18001KT 10SM CLR 20/12 A2982 RMK AO2 SLP085 T01970116 10295 20197 50003

More Conditions Fewer Conditions

10-Day Weather Forecast

Almanac

Astronomy

Sep. 30, 2014 Rise Set
Actual Time 6:41 AM PDT 6:33 PM PDT
Civil Twilight 6:16 AM PDT 6:57 PM PDT
Nautical Twilight 5:47 AM PDT 7:26 PM PDT
Astronomical Twilight 5:18 AM PDT 7:55 PM PDT
Moon 12:41 PM PDT (9/30) 11:19 PM PDT (9/30)
Length of Visible Light 12h 41m
Length of Day
11h 51m
Tomorrow will be 2m 5s shorter.
Waxing Crescent, 44% of the Moon is Illuminated
Oct 1
Waxing Crescent
Oct 1
First Quarter
Oct 8
Full
Oct 15
Last Quarter
Oct 23
New

Community

WunderPhotos

Upload Photos

1,757,886 photos uploaded!

Nearby

Air Quality

  Air Quality AQ Index Pollutant
Yesterday Moderate
PM2.5
Yesterday Moderate
OZONE
Current Good
PM2.5
Current Good
OZONE
Wednesday Good
PM10
Wednesday Moderate
OZONE
Wednesday Good
CO
Wednesday Good
NO2

Snow Depth

Station Depth Elevation
Leavitt Meadows 1 in 7200 ft
Fallen Leaf 0 in 6300 ft
CSS Lab 4 in 6900 ft
Leavitt Lake 1 in 9400 ft
Summit Meadow 1 in 9122 ft

Earthquake Activity

City Distance Mag. Time & Date
Avalon, California 103 miles 2.6 1:28 PM PDT
2014-09-30
Minimum magnitude displayed is 2.5.

Coastal Water Temperatures

Place Temperature
No Stations Reporting

Nearby Weather Stations